Torre De Bel M — CSIO — position and weather

sailwx.info

Track history (hours):
 
Tides and Currents Weather Stations Pressure Air Temp Water Temp Dewpoint Dewpoint Depression Visibility Wind Speed Wind Dir Waves Ship Positions

Torre De Bel M

Last reported at 2015-Apr-01 07:34 UTC. Time now 2015-Apr-01 08:06 UTC.
Position N 38°41' W 009°23'.

Length 13 m; draft 1.1 m.

Type: Pilot. MMSI: 263671850.

Date/timePositionNaut miles runAvg speedWind from/ knotsBaromVisibWave heightAir tempDewpointWater temp
2015-Apr-01 07:34N 38°41' W 009°23'1 0.0
2015-Mar-30 21:08N 38°42' W 009°25'2 4.2
2015-Mar-30 20:33N 38°40' W 009°24'2 0.1
2015-Mar-29 21:26N 38°42' W 009°25'0 0.0
2015-Mar-29 16:33N 38°42' W 009°25'0 0.2
2015-Mar-29 15:33N 38°42' W 009°25'0 0.2
2015-Mar-29 14:33N 38°42' W 009°25'0 0.0
2015-Mar-29 09:29N 38°42' W 009°25'0 0.3
2015-Mar-29 08:33N 38°42' W 009°25'0 0.0
2015-Mar-29 04:15N 38°42' W 009°25'0 0.0
2015-Mar-28 10:33N 38°41' W 009°25'2 1.6
2015-Mar-28 09:33N 38°40' W 009°24'2 0.2
2015-Mar-28 01:19N 38°42' W 009°25'3 3.6
2015-Mar-28 00:33N 38°39' W 009°23'1 0.8
2015-Mar-27 23:33N 38°39' W 009°24'3 2.6
2015-Mar-27 22:33N 38°42' W 009°25'0 0.0
2015-Mar-27 21:33N 38°42' W 009°25'0 0.0
2015-Mar-27 20:33N 38°42' W 009°25'0 0.0
2015-Mar-27 10:33N 38°42' W 009°25'0 0.0
2015-Mar-26 23:22N 38°42' W 009°25'0 0.0
2015-Mar-26 22:33N 38°42' W 009°25'0 0.0
2015-Mar-26 21:33N 38°42' W 009°25'0 0.0
2015-Mar-26 20:33N 38°42' W 009°25'0 0.0
2015-Mar-26 19:33N 38°42' W 009°25'0 0.0
2015-Mar-26 18:32N 38°42' W 009°25'2 2.0
2015-Mar-26 17:33N 38°40' W 009°25'2 2.0
2015-Mar-26 16:33N 38°42' W 009°25'0 0.0
2015-Mar-26 15:33N 38°42' W 009°25'2 1.9
2015-Mar-26 14:33N 38°40' W 009°24'3 0.1
2015-Mar-25 19:33N 38°40' W 009°28'3 2.8
2015-Mar-25 18:33N 38°42' W 009°25'0 0.0
2015-Mar-25 17:33N 38°42' W 009°25'0 0.0
2015-Mar-25 16:32N 38°42' W 009°25'0 0.0
2015-Mar-25 15:33N 38°42' W 009°25'0 0.0
2015-Mar-25 14:32N 38°42' W 009°25'0 0.0
2015-Mar-25 13:33N 38°42' W 009°25'0 0.0
2015-Mar-25 12:31N 38°42' W 009°25'0 0.0
2015-Mar-25 11:33N 38°42' W 009°25'0 0.0
2015-Mar-25 10:33N 38°42' W 009°25'0 0.0
2015-Mar-25 09:33N 38°42' W 009°25'0 0.0
2015-Mar-25 08:33N 38°42' W 009°25'0 0.0
2015-Mar-24 22:31N 38°42' W 009°25'0 0.0
2015-Mar-24 16:27N 38°42' W 009°25'0 0.0
2015-Mar-24 15:07N 38°42' W 009°25'0 0.1
2015-Mar-24 14:33N 38°42' W 009°25'0 0.0
2015-Mar-24 06:33N 38°42' W 009°25'0 0.0
2015-Mar-24 05:33N 38°42' W 009°25'0 0.0
2015-Mar-23 20:12N 38°42' W 009°25'0 0.0
2015-Mar-22 20:13N 38°42' W 009°25'  
Track history (hours):
 
Tides and Currents Weather Stations Pressure Air Temp Water Temp Dewpoint Dewpoint Depression Visibility Wind Speed Wind Dir Waves Ship Positions

Torre De Bel M

Last reported at 2015-Apr-01 07:34 UTC. Time now 2015-Apr-01 08:06 UTC.
Position N 38°41' W 009°23'.

Length 13 m; draft 1.1 m.

Type: Pilot. MMSI: 263671850.

Date/timePositionNaut miles runAvg speedWind from/ knotsBaromVisibWave heightAir tempDewpointWater temp
2015-Apr-01 07:34N 38°41' W 009°23'1 0.0
2015-Mar-30 21:08N 38°42' W 009°25'2 4.2
2015-Mar-30 20:33N 38°40' W 009°24'2 0.1
2015-Mar-29 21:26N 38°42' W 009°25'0 0.0
2015-Mar-29 16:33N 38°42' W 009°25'0 0.2
2015-Mar-29 15:33N 38°42' W 009°25'0 0.2
2015-Mar-29 14:33N 38°42' W 009°25'0 0.0
2015-Mar-29 09:29N 38°42' W 009°25'0 0.3
2015-Mar-29 08:33N 38°42' W 009°25'0 0.0
2015-Mar-29 04:15N 38°42' W 009°25'0 0.0
2015-Mar-28 10:33N 38°41' W 009°25'2 1.6
2015-Mar-28 09:33N 38°40' W 009°24'2 0.2
2015-Mar-28 01:19N 38°42' W 009°25'3 3.6
2015-Mar-28 00:33N 38°39' W 009°23'1 0.8
2015-Mar-27 23:33N 38°39' W 009°24'3 2.6
2015-Mar-27 22:33N 38°42' W 009°25'0 0.0
2015-Mar-27 21:33N 38°42' W 009°25'0 0.0
2015-Mar-27 20:33N 38°42' W 009°25'0 0.0
2015-Mar-27 10:33N 38°42' W 009°25'0 0.0
2015-Mar-26 23:22N 38°42' W 009°25'0 0.0
2015-Mar-26 22:33N 38°42' W 009°25'0 0.0
2015-Mar-26 21:33N 38°42' W 009°25'0 0.0
2015-Mar-26 20:33N 38°42' W 009°25'0 0.0
2015-Mar-26 19:33N 38°42' W 009°25'0 0.0
2015-Mar-26 18:32N 38°42' W 009°25'2 2.0
2015-Mar-26 17:33N 38°40' W 009°25'2 2.0
2015-Mar-26 16:33N 38°42' W 009°25'0 0.0
2015-Mar-26 15:33N 38°42' W 009°25'2 1.9
2015-Mar-26 14:33N 38°40' W 009°24'3 0.1
2015-Mar-25 19:33N 38°40' W 009°28'3 2.8
2015-Mar-25 18:33N 38°42' W 009°25'0 0.0
2015-Mar-25 17:33N 38°42' W 009°25'0 0.0
2015-Mar-25 16:32N 38°42' W 009°25'0 0.0
2015-Mar-25 15:33N 38°42' W 009°25'0 0.0
2015-Mar-25 14:32N 38°42' W 009°25'0 0.0
2015-Mar-25 13:33N 38°42' W 009°25'0 0.0
2015-Mar-25 12:31N 38°42' W 009°25'0 0.0
2015-Mar-25 11:33N 38°42' W 009°25'0 0.0
2015-Mar-25 10:33N 38°42' W 009°25'0 0.0
2015-Mar-25 09:33N 38°42' W 009°25'0 0.0
2015-Mar-25 08:33N 38°42' W 009°25'0 0.0
2015-Mar-24 22:31N 38°42' W 009°25'0 0.0
2015-Mar-24 16:27N 38°42' W 009°25'0 0.0
2015-Mar-24 15:07N 38°42' W 009°25'0 0.1
2015-Mar-24 14:33N 38°42' W 009°25'0 0.0
2015-Mar-24 06:33N 38°42' W 009°25'0 0.0
2015-Mar-24 05:33N 38°42' W 009°25'0 0.0
2015-Mar-23 20:12N 38°42' W 009°25'0 0.0
2015-Mar-22 20:13N 38°42' W 009°25'  

Dump ship's entire track history